Time;durP1;ratioP1;P1;durP2;ratioP2;P2;SDS_P1;SDS_P2;PMS_P1;PMS_P2;Temp;Humidity;BMP_temperature;BMP_pressure;BME280_temperature;BME280_humidity;BME280_pressure;Samples;Min_cycle;Max_cycle;Signal;HPM_P1;HPM_P2
2023/01/09 00:00:13;;;;;;;;;;;6.00;99.90;;;;;;4939974;29;19933;-90
2023/01/09 00:02:39;;;;;;;;;;;6.10;99.90;;;;;;4955524;29;19927;-89
2023/01/09 00:05:06;;;;;;;;;;;6.00;99.90;;;;;;4939616;29;19934;-90
2023/01/09 00:07:31;;;;;;;;;;;6.10;99.90;;;;;;4923569;29;19977;-90
2023/01/09 00:09:57;;;;;;;;;;;6.10;99.90;;;;;;4923641;29;20025;-90
2023/01/09 00:12:23;;;;;;;;;;;6.10;99.90;;;;;;4939436;29;19926;-93
2023/01/09 00:14:51;;;;;;;;;;;6.70;99.90;;;;;;4939295;29;19942;-90
2023/01/09 00:17:16;;;;;;;;;;;6.80;99.90;;;;;;4923882;29;19926;-93
2023/01/09 00:19:42;;;;;;;;;;;6.30;99.90;;;;;;4923559;29;19978;-91
2023/01/09 00:22:08;;;;;;;;;;;6.40;99.90;;;;;;4924287;29;19930;-90
2023/01/09 00:24:37;;;;;;;;;;;6.40;99.90;;;;;;4938961;29;19978;-89
2023/01/09 00:27:03;;;;;;;;;;;6.40;99.90;;;;;;4939676;29;19927;-90
2023/01/09 00:29:28;;;;;;;;;;;6.40;99.90;;;;;;4939753;29;19950;-90
2023/01/09 00:31:54;;;;;;;;;;;6.40;99.90;;;;;;4939124;29;19934;-91
2023/01/09 00:34:20;;;;;;;;;;;6.30;99.90;;;;;;4938813;29;19938;-91
2023/01/09 00:36:45;;;;;;;;;;;6.60;99.90;;;;;;4939780;29;19951;-90
2023/01/09 00:39:11;;;;;;;;;;;6.20;99.90;;;;;;4939882;29;19994;-89
2023/01/09 00:41:41;;;;;;;;;;;6.80;99.90;;;;;;4924069;29;20009;-90
2023/01/09 00:44:15;;;;;;;;;;;6.10;99.90;;;;;;4924035;29;20233;-90
2023/01/09 00:46:44;;;;;;;;;;;6.10;99.90;;;;;;4923098;29;20037;-90
2023/01/09 00:49:10;;;;;;;;;;;6.30;99.90;;;;;;4938792;29;19926;-90
2023/01/09 00:51:37;;;;;;;;;;;5.90;99.90;;;;;;4939097;29;19926;-90
2023/01/09 00:54:05;;;;;;;;;;;5.90;99.90;;;;;;4923256;29;19942;-91
2023/01/09 00:56:32;;;;;;;;;;;5.90;99.90;;;;;;4938473;29;20324;-89
2023/01/09 00:58:58;;;;;;;;;;;5.80;99.90;;;;;;4922882;29;19936;-90
2023/01/09 01:01:23;;;;;;;;;;;6.30;99.90;;;;;;4938849;29;19927;-90
2023/01/09 01:03:49;;;;;;;;;;;5.90;99.90;;;;;;4938739;29;19926;-90
2023/01/09 01:08:59;;;;;;;;;;;5.70;99.90;;;;;;4939376;29;19926;-90
2023/01/09 01:11:24;;;;;;;;;;;7.00;99.90;;;;;;4922809;29;19926;-90
2023/01/09 01:13:51;;;;;;;;;;;5.60;99.90;;;;;;4938967;29;20263;-90
2023/01/09 01:16:17;;;;;;;;;;;5.50;99.90;;;;;;4938929;29;19926;-90
2023/01/09 01:18:42;;;;;;;;;;;5.60;99.90;;;;;;4939607;29;20263;-90
2023/01/09 01:21:09;;;;;;;;;;;5.40;99.90;;;;;;4922761;29;19926;-90
2023/01/09 01:23:35;;;;;;;;;;;5.40;99.90;;;;;;4922862;29;20007;-90
2023/01/09 01:26:08;;;;;;;;;;;5.80;99.90;;;;;;4938503;29;19971;-90
2023/01/09 01:28:34;;;;;;;;;;;5.40;99.90;;;;;;4938600;29;20375;-90
2023/01/09 01:30:59;;;;;;;;;;;5.70;99.90;;;;;;4938799;29;19934;-90
2023/01/09 01:33:25;;;;;;;;;;;6.40;99.90;;;;;;4938355;29;20013;-91
2023/01/09 01:35:58;;;;;;;;;;;5.40;99.90;;;;;;4922968;29;19933;-90
2023/01/09 01:38:23;;;;;;;;;;;5.40;99.90;;;;;;4939473;29;19993;-90
2023/01/09 01:40:53;;;;;;;;;;;5.40;99.90;;;;;;4938690;29;19991;-90
2023/01/09 01:43:18;;;;;;;;;;;5.40;99.90;;;;;;4922925;29;20450;-90
2023/01/09 01:45:44;;;;;;;;;;;6.30;99.90;;;;;;4922646;29;19926;-90
2023/01/09 01:48:17;;;;;;;;;;;5.50;99.90;;;;;;4923433;29;19942;-91
2023/01/09 01:51:09;;;;;;;;;;;5.60;99.90;;;;;;4922772;29;19965;-90
2023/01/09 01:53:37;;;;;;;;;;;5.60;99.90;;;;;;4920585;29;19949;-89
2023/01/09 01:56:13;;;;;;;;;;;5.60;99.90;;;;;;4922415;29;19927;-90
2023/01/09 01:58:43;;;;;;;;;;;5.70;99.90;;;;;;4940662;29;20021;-90
2023/01/09 02:01:09;;;;;;;;;;;5.70;99.90;;;;;;4925604;29;19926;-90
2023/01/09 02:03:35;;;;;;;;;;;5.70;99.90;;;;;;4926802;29;20005;-90
2023/01/09 02:06:03;;;;;;;;;;;5.80;99.90;;;;;;4925762;29;20029;-90
2023/01/09 02:08:29;;;;;;;;;;;5.70;99.90;;;;;;4941716;29;19931;-90
2023/01/09 02:10:55;;;;;;;;;;;6.20;99.90;;;;;;4927957;29;19973;-90
2023/01/09 02:13:21;;;;;;;;;;;6.60;99.90;;;;;;4927669;29;19977;-90
2023/01/09 02:15:52;;;;;;;;;;;6.70;99.90;;;;;;4926358;29;20279;-90
2023/01/09 02:18:33;;;;;;;;;;;5.70;99.90;;;;;;4941969;29;19930;-90
2023/01/09 02:21:22;;;;;;;;;;;5.70;99.90;;;;;;4941562;29;19930;-90
2023/01/09 02:24:08;;;;;;;;;;;5.60;99.90;;;;;;4925676;29;20051;-90
2023/01/09 02:26:33;;;;;;;;;;;5.60;99.90;;;;;;4941175;29;19926;-90
2023/01/09 02:29:02;;;;;;;;;;;6.40;99.90;;;;;;4941107;29;19974;-91
2023/01/09 02:31:48;;;;;;;;;;;5.50;99.90;;;;;;4941627;29;19973;-90
2023/01/09 02:34:23;;;;;;;;;;;5.60;99.90;;;;;;4930760;29;19926;-91
2023/01/09 02:36:53;;;;;;;;;;;6.60;99.90;;;;;;4942056;29;20283;-90
2023/01/09 02:39:19;;;;;;;;;;;5.90;99.90;;;;;;4924944;29;19973;-90
2023/01/09 02:41:52;;;;;;;;;;;5.40;99.90;;;;;;4941058;29;19970;-90
2023/01/09 02:44:25;;;;;;;;;;;5.30;99.90;;;;;;4941324;29;19980;-90
2023/01/09 02:47:02;;;;;;;;;;;5.30;99.90;;;;;;4925116;29;19926;-90
2023/01/09 02:49:28;;;;;;;;;;;5.20;99.90;;;;;;4940731;29;19931;-90
2023/01/09 02:52:00;;;;;;;;;;;6.10;99.90;;;;;;4924642;29;20337;-90
2023/01/09 02:54:58;;;;;;;;;;;5.20;99.90;;;;;;4941279;29;20286;-90
2023/01/09 02:57:43;;;;;;;;;;;5.10;99.90;;;;;;4904044;29;19933;-90
2023/01/09 03:00:20;;;;;;;;;;;5.10;99.90;;;;;;4940603;29;19927;-91
2023/01/09 03:02:48;;;;;;;;;;;5.00;99.90;;;;;;4941004;29;20256;-90
2023/01/09 03:05:20;;;;;;;;;;;6.00;99.90;;;;;;4940634;29;19926;-90
2023/01/09 03:07:54;;;;;;;;;;;4.90;99.90;;;;;;4940432;29;20282;-90
2023/01/09 03:10:25;;;;;;;;;;;4.90;99.90;;;;;;4940140;29;19953;-91
2023/01/09 03:12:52;;;;;;;;;;;5.60;99.90;;;;;;4940546;29;19933;-90
2023/01/09 03:15:20;;;;;;;;;;;5.90;99.90;;;;;;4940508;29;19986;-90
2023/01/09 03:17:47;;;;;;;;;;;6.30;99.90;;;;;;4924542;29;19926;-90
2023/01/09 03:20:15;;;;;;;;;;;4.70;99.90;;;;;;4924851;29;20394;-91
2023/01/09 03:22:46;;;;;;;;;;;4.70;99.90;;;;;;4924385;29;19926;-90
2023/01/09 03:25:11;;;;;;;;;;;4.60;99.90;;;;;;4939817;29;19990;-90
2023/01/09 03:27:37;;;;;;;;;;;4.60;99.90;;;;;;4924415;29;19931;-90
2023/01/09 03:30:03;;;;;;;;;;;4.60;99.90;;;;;;4940147;29;19926;-90
2023/01/09 03:32:28;;;;;;;;;;;4.50;99.90;;;;;;4925117;29;19926;-90
2023/01/09 03:34:54;;;;;;;;;;;5.30;99.90;;;;;;4941068;29;19977;-90
2023/01/09 03:37:19;;;;;;;;;;;5.80;99.90;;;;;;4924275;29;19937;-89
2023/01/09 03:39:45;;;;;;;;;;;4.40;99.90;;;;;;4939907;29;19926;-91
2023/01/09 03:42:11;;;;;;;;;;;6.10;99.90;;;;;;4924905;29;19984;-90
2023/01/09 03:44:36;;;;;;;;;;;5.10;99.90;;;;;;4940065;29;19926;-90
2023/01/09 03:47:02;;;;;;;;;;;4.30;99.90;;;;;;4939890;29;20252;-91
2023/01/09 03:49:27;;;;;;;;;;;4.30;99.90;;;;;;4939677;29;19931;-91
2023/01/09 03:51:53;;;;;;;;;;;4.30;99.90;;;;;;4939767;29;19931;-89
2023/01/09 03:54:18;;;;;;;;;;;4.90;99.90;;;;;;4923871;29;20252;-90
2023/01/09 03:56:44;;;;;;;;;;;5.40;99.90;;;;;;4939560;29;19927;-91
2023/01/09 03:59:10;;;;;;;;;;;5.80;99.90;;;;;;4939986;29;19978;-90
2023/01/09 04:01:36;;;;;;;;;;;4.30;99.90;;;;;;4939470;29;19927;-90
2023/01/09 04:04:01;;;;;;;;;;;5.80;99.90;;;;;;4940398;29;19972;-90
2023/01/09 04:06:27;;;;;;;;;;;5.20;99.90;;;;;;4940170;29;19982;-90
2023/01/09 04:08:53;;;;;;;;;;;6.20;99.90;;;;;;4940299;29;20359;-91
2023/01/09 04:11:21;;;;;;;;;;;5.60;99.90;;;;;;4939637;29;19926;-90
2023/01/09 04:13:46;;;;;;;;;;;5.30;99.90;;;;;;4923666;29;19926;-90
2023/01/09 04:16:12;;;;;;;;;;;5.40;99.90;;;;;;4924280;29;19933;-90
2023/01/09 04:18:38;;;;;;;;;;;4.10;99.90;;;;;;4939301;29;19982;-90
2023/01/09 04:21:03;;;;;;;;;;;4.50;99.90;;;;;;4923219;29;19930;-90
2023/01/09 04:23:29;;;;;;;;;;;4.10;99.90;;;;;;4954951;29;19926;-90
2023/01/09 04:25:54;;;;;;;;;;;4.10;99.90;;;;;;4954425;29;19945;-90
2023/01/09 04:28:20;;;;;;;;;;;4.30;99.90;;;;;;4923247;29;20323;-90
2023/01/09 04:30:45;;;;;;;;;;;4.50;99.90;;;;;;4956614;29;19951;-89
2023/01/09 04:33:11;;;;;;;;;;;4.00;99.90;;;;;;4941180;29;19927;-90
2023/01/09 04:35:36;;;;;;;;;;;5.70;99.90;;;;;;4924176;29;19926;-89
2023/01/09 04:38:02;;;;;;;;;;;4.00;99.90;;;;;;4939574;29;19930;-90
2023/01/09 04:40:28;;;;;;;;;;;4.50;99.90;;;;;;4923370;29;19930;-90
2023/01/09 04:42:53;;;;;;;;;;;5.30;99.90;;;;;;4939254;29;19926;-90
2023/01/09 04:45:19;;;;;;;;;;;5.90;99.90;;;;;;4922859;29;19934;-90
2023/01/09 04:47:44;;;;;;;;;;;4.30;99.90;;;;;;4923065;29;20283;-90
2023/01/09 04:50:11;;;;;;;;;;;3.90;99.90;;;;;;4938518;29;19930;-90
2023/01/09 04:52:37;;;;;;;;;;;3.90;99.90;;;;;;4938899;29;20335;-90
2023/01/09 04:55:04;;;;;;;;;;;4.40;99.90;;;;;;4923189;29;19974;-89
2023/01/09 04:57:29;;;;;;;;;;;3.80;99.90;;;;;;4938779;29;19930;-89
2023/01/09 04:59:55;;;;;;;;;;;3.90;99.90;;;;;;4939022;29;19927;-90
2023/01/09 05:02:20;;;;;;;;;;;2.60;99.90;;;;;;4938941;29;19926;-90
2023/01/09 05:04:46;;;;;;;;;;;5.50;99.90;;;;;;4939601;29;20029;-90
2023/01/09 05:07:11;;;;;;;;;;;5.40;99.90;;;;;;4923756;29;19974;-89
2023/01/09 05:09:37;;;;;;;;;;;3.80;99.90;;;;;;4922921;29;20374;-90
2023/01/09 05:12:03;;;;;;;;;;;4.60;99.90;;;;;;4923156;29;19927;-90
2023/01/09 05:14:28;;;;;;;;;;;3.80;99.90;;;;;;4923116;29;19977;-90
2023/01/09 05:16:54;;;;;;;;;;;3.80;99.90;;;;;;4922854;29;20385;-90
2023/01/09 05:19:20;;;;;;;;;;;5.40;99.90;;;;;;4938609;29;19937;-90
2023/01/09 05:21:45;;;;;;;;;;;5.10;99.90;;;;;;4939291;29;20275;-90
2023/01/09 05:24:11;;;;;;;;;;;5.20;99.90;;;;;;4922776;29;19928;-89
2023/01/09 05:26:37;;;;;;;;;;;4.70;99.90;;;;;;4938131;29;19934;-90
2023/01/09 05:29:02;;;;;;;;;;;3.90;99.90;;;;;;4938744;29;20009;-90
2023/01/09 05:31:28;;;;;;;;;;;6.10;99.90;;;;;;4938719;28;19933;-90
2023/01/09 05:33:53;;;;;;;;;;;4.00;99.90;;;;;;4925880;29;19944;-90
2023/01/09 05:36:19;;;;;;;;;;;4.10;99.90;;;;;;4943019;29;20083;-90
2023/01/09 05:38:45;;;;;;;;;;;5.00;99.90;;;;;;4941905;29;20010;-90
2023/01/09 05:41:10;;;;;;;;;;;4.80;99.90;;;;;;4926278;29;19927;-90
2023/01/09 05:43:36;;;;;;;;;;;4.80;99.90;;;;;;4942074;29;19927;-90
2023/01/09 05:46:01;;;;;;;;;;;4.30;99.90;;;;;;4926249;29;19933;-90
2023/01/09 05:48:27;;;;;;;;;;;2.80;99.90;;;;;;4941939;29;20051;-90
2023/01/09 05:50:52;;;;;;;;;;;4.40;99.90;;;;;;4942036;29;19927;-90
2023/01/09 05:53:18;;;;;;;;;;;4.50;99.90;;;;;;4942026;29;19950;-90
2023/01/09 05:55:44;;;;;;;;;;;5.00;99.90;;;;;;4942233;29;20398;-90
2023/01/09 05:58:09;;;;;;;;;;;4.50;99.90;;;;;;4926351;29;19926;-90
2023/01/09 06:00:35;;;;;;;;;;;5.30;99.90;;;;;;4926242;29;19934;-93
2023/01/09 06:03:00;;;;;;;;;;;4.80;99.90;;;;;;4941869;29;19926;-90
2023/01/09 06:05:26;;;;;;;;;;;4.60;99.90;;;;;;4925857;29;19926;-90
2023/01/09 06:07:52;;;;;;;;;;;4.60;99.90;;;;;;4925658;29;19985;-90
2023/01/09 06:10:17;;;;;;;;;;;4.70;99.90;;;;;;4925522;29;19931;-90
2023/01/09 06:12:47;;;;;;;;;;;5.50;99.90;;;;;;4941982;29;19949;-90
2023/01/09 06:15:14;;;;;;;;;;;4.60;99.90;;;;;;4941383;29;19927;-90
2023/01/09 06:17:40;;;;;;;;;;;4.70;99.90;;;;;;4926229;29;19927;-92
2023/01/09 06:20:06;;;;;;;;;;;4.80;99.90;;;;;;4926029;29;19927;-91
2023/01/09 06:22:32;;;;;;;;;;;4.70;99.90;;;;;;4925338;29;19926;-92
2023/01/09 06:24:57;;;;;;;;;;;6.00;99.90;;;;;;4925840;29;19989;-90
2023/01/09 06:27:23;;;;;;;;;;;4.90;99.90;;;;;;4940989;29;19952;-91
2023/01/09 06:29:49;;;;;;;;;;;4.90;99.90;;;;;;4941120;29;19934;-91
2023/01/09 06:32:14;;;;;;;;;;;6.70;99.90;;;;;;4925840;29;19926;-92
2023/01/09 06:34:40;;;;;;;;;;;4.80;99.90;;;;;;4925390;29;19926;-91
2023/01/09 06:37:05;;;;;;;;;;;4.80;99.90;;;;;;4941100;29;19926;-89
2023/01/09 06:39:31;;;;;;;;;;;6.50;99.90;;;;;;4926548;29;19926;-88
2023/01/09 06:41:57;;;;;;;;;;;4.90;99.90;;;;;;4925529;29;20021;-89
2023/01/09 06:44:22;;;;;;;;;;;4.90;99.90;;;;;;4940946;29;19926;-88
2023/01/09 06:46:48;;;;;;;;;;;4.90;99.90;;;;;;4925085;29;19973;-87
2023/01/09 06:49:13;;;;;;;;;;;5.40;99.90;;;;;;4925605;29;19933;-86
2023/01/09 06:51:39;;;;;;;;;;;4.90;99.90;;;;;;4924941;29;19926;-87
2023/01/09 06:54:04;;;;;;;;;;;6.60;99.90;;;;;;4941055;29;19973;-87
2023/01/09 06:56:30;;;;;;;;;;;4.90;99.90;;;;;;4941430;29;19944;-87
2023/01/09 06:58:56;;;;;;;;;;;4.80;99.90;;;;;;4940827;29;19977;-87
2023/01/09 07:01:21;;;;;;;;;;;5.00;99.90;;;;;;4941014;29;19931;-87
2023/01/09 07:03:47;;;;;;;;;;;5.70;99.90;;;;;;4924532;29;19931;-87
2023/01/09 07:06:13;;;;;;;;;;;5.90;99.90;;;;;;4924699;29;20363;-87
2023/01/09 07:08:38;;;;;;;;;;;4.80;99.90;;;;;;4940556;29;19974;-87
2023/01/09 07:11:04;;;;;;;;;;;5.80;99.90;;;;;;4940427;29;19927;-86
2023/01/09 07:13:30;;;;;;;;;;;4.80;99.90;;;;;;4940572;29;19941;-87
2023/01/09 07:15:55;;;;;;;;;;;4.90;99.90;;;;;;4940575;29;19998;-87
2023/01/09 07:18:21;;;;;;;;;;;4.80;99.90;;;;;;4924574;29;19948;-87
2023/01/09 07:20:47;;;;;;;;;;;4.80;99.90;;;;;;4956024;29;19927;-87
2023/01/09 07:23:13;;;;;;;;;;;5.60;99.90;;;;;;4924653;29;19930;-87
2023/01/09 07:25:39;;;;;;;;;;;4.80;99.90;;;;;;4940175;29;19926;-87
2023/01/09 07:28:05;;;;;;;;;;;4.80;99.90;;;;;;4941137;29;20311;-87
2023/01/09 07:30:32;;;;;;;;;;;5.20;99.90;;;;;;4939793;29;20028;-87
2023/01/09 07:32:57;;;;;;;;;;;5.90;99.90;;;;;;4940336;29;20398;-87
2023/01/09 07:35:23;;;;;;;;;;;4.80;99.90;;;;;;4939978;29;19927;-87
2023/01/09 07:37:49;;;;;;;;;;;4.80;99.90;;;;;;4940181;29;19927;-87
2023/01/09 07:40:14;;;;;;;;;;;4.80;99.90;;;;;;4940253;29;20021;-87
2023/01/09 07:42:40;;;;;;;;;;;4.70;99.90;;;;;;4924040;29;19973;-87
2023/01/09 07:45:06;;;;;;;;;;;4.80;99.90;;;;;;4955851;29;19926;-87
2023/01/09 07:47:31;;;;;;;;;;;4.60;99.90;;;;;;4940017;29;19927;-87
2023/01/09 07:49:57;;;;;;;;;;;6.20;99.90;;;;;;4939570;29;19937;-87
2023/01/09 07:52:22;;;;;;;;;;;4.60;99.90;;;;;;4923620;29;19927;-87
2023/01/09 07:54:48;;;;;;;;;;;5.50;99.90;;;;;;4939438;28;19930;-87
2023/01/09 07:57:13;;;;;;;;;;;5.10;99.90;;;;;;4923175;29;20299;-87
2023/01/09 07:59:39;;;;;;;;;;;5.50;99.90;;;;;;4940398;29;19986;-87
2023/01/09 08:02:05;;;;;;;;;;;4.50;99.90;;;;;;4939580;29;19926;-87
2023/01/09 08:04:31;;;;;;;;;;;4.50;99.90;;;;;;4939526;29;19974;-87
2023/01/09 08:06:57;;;;;;;;;;;4.60;99.90;;;;;;4923941;29;20013;-87
2023/01/09 08:09:23;;;;;;;;;;;5.60;99.90;;;;;;4923809;29;20244;-87
2023/01/09 08:11:49;;;;;;;;;;;4.30;99.90;;;;;;4939376;29;19926;-87
2023/01/09 08:14:15;;;;;;;;;;;6.30;99.90;;;;;;4939312;29;19978;-87
2023/01/09 08:16:40;;;;;;;;;;;5.50;99.90;;;;;;4956326;29;19979;-87
2023/01/09 08:19:06;;;;;;;;;;;4.50;99.90;;;;;;4939297;29;19979;-87
2023/01/09 08:21:31;;;;;;;;;;;4.30;99.90;;;;;;4939250;29;19926;-87
2023/01/09 08:23:57;;;;;;;;;;;4.80;99.90;;;;;;4939279;29;19931;-87
2023/01/09 08:26:23;;;;;;;;;;;4.40;99.90;;;;;;4954663;29;20017;-87
2023/01/09 08:28:48;;;;;;;;;;;4.40;99.90;;;;;;4922939;29;19926;-87
2023/01/09 08:31:14;;;;;;;;;;;6.10;99.90;;;;;;4939896;29;19987;-87
2023/01/09 08:33:39;;;;;;;;;;;4.80;99.90;;;;;;4938907;29;19926;-87
2023/01/09 08:36:05;;;;;;;;;;;4.60;99.90;;;;;;4923325;29;20271;-87
2023/01/09 08:38:31;;;;;;;;;;;4.60;99.90;;;;;;4923359;29;19926;-87
2023/01/09 08:40:56;;;;;;;;;;;4.60;99.90;;;;;;4939721;29;19927;-87
2023/01/09 08:48:56;;;;;;;;;;;4.80;99.90;;;;;;4939759;29;19966;-87
2023/01/09 08:51:22;;;;;;;;;;;4.80;99.90;;;;;;4939484;29;20033;-87
2023/01/09 08:53:47;;;;;;;;;;;5.80;99.90;;;;;;4938866;29;19930;-87
2023/01/09 08:56:13;;;;;;;;;;;4.90;99.90;;;;;;4939073;29;19926;-87
2023/01/09 08:58:39;;;;;;;;;;;5.30;99.90;;;;;;4939120;29;19930;-87
2023/01/09 09:01:07;;;;;;;;;;;5.00;99.90;;;;;;4938888;29;20325;-87
2023/01/09 09:03:33;;;;;;;;;;;5.00;99.90;;;;;;4939546;29;19980;-87
2023/01/09 09:05:59;;;;;;;;;;;5.00;99.90;;;;;;4938781;29;20328;-87
2023/01/09 09:08:24;;;;;;;;;;;5.10;99.90;;;;;;4941061;29;20339;-87
2023/01/09 09:10:50;;;;;;;;;;;5.20;99.90;;;;;;4942381;29;19933;-87
2023/01/09 09:13:15;;;;;;;;;;;5.20;99.90;;;;;;4927009;29;20304;-87
2023/01/09 09:15:41;;;;;;;;;;;5.20;99.90;;;;;;4942585;29;19927;-87
2023/01/09 09:18:08;;;;;;;;;;;6.00;99.90;;;;;;4927429;29;19978;-87
2023/01/09 09:20:35;;;;;;;;;;;5.30;99.90;;;;;;4942742;29;20312;-87
2023/01/09 09:23:00;;;;;;;;;;;5.30;99.90;;;;;;4942501;29;20291;-87
2023/01/09 09:25:26;;;;;;;;;;;5.90;99.90;;;;;;4942184;29;19926;-87
2023/01/09 09:27:54;;;;;;;;;;;6.20;99.90;;;;;;4925252;29;19926;-87
2023/01/09 09:30:20;;;;;;;;;;;5.40;99.90;;;;;;4925206;29;20066;-87
2023/01/09 09:32:46;;;;;;;;;;;5.40;99.90;;;;;;4941415;29;20017;-87
2023/01/09 09:35:11;;;;;;;;;;;5.80;99.90;;;;;;4924897;29;20017;-87
2023/01/09 09:37:37;;;;;;;;;;;5.40;99.90;;;;;;4956934;29;19936;-87
2023/01/09 09:40:04;;;;;;;;;;;5.60;99.90;;;;;;4941034;29;19927;-87
2023/01/09 09:45:31;;;;;;;;;;;5.50;99.90;;;;;;4942161;29;19933;-87
2023/01/09 09:47:57;;;;;;;;;;;5.50;99.90;;;;;;4941753;29;19930;-87
2023/01/09 09:50:39;;;;;;;;;;;5.50;99.90;;;;;;4940641;29;19927;-87
2023/01/09 09:53:08;;;;;;;;;;;5.50;99.90;;;;;;4941803;29;19930;-87
2023/01/09 09:55:34;;;;;;;;;;;5.60;99.90;;;;;;4940828;29;20312;-87
2023/01/09 09:58:02;;;;;;;;;;;5.60;99.90;;;;;;4940690;29;19977;-87
2023/01/09 10:00:27;;;;;;;;;;;6.10;99.90;;;;;;4940679;29;19938;-87
2023/01/09 10:02:56;;;;;;;;;;;5.70;99.90;;;;;;4940548;29;19930;-88
2023/01/09 10:05:25;;;;;;;;;;;5.80;99.90;;;;;;4956499;29;19927;-87
2023/01/09 10:07:51;;;;;;;;;;;5.80;99.90;;;;;;4940489;29;20268;-87
2023/01/09 10:10:29;;;;;;;;;;;6.50;99.90;;;;;;4924652;29;20041;-87
2023/01/09 10:12:56;;;;;;;;;;;5.80;99.90;;;;;;4940561;29;19974;-87
2023/01/09 10:15:25;;;;;;;;;;;5.80;99.90;;;;;;4941346;29;19934;-87
2023/01/09 10:17:57;;;;;;;;;;;5.90;99.90;;;;;;4940996;28;20341;-87
2023/01/09 10:20:29;;;;;;;;;;;5.90;99.90;;;;;;4941077;29;20287;-87
2023/01/09 10:23:00;;;;;;;;;;;6.00;99.90;;;;;;4940286;29;19927;-87
2023/01/09 10:25:39;;;;;;;;;;;6.00;99.90;;;;;;4895858;29;1804538;-86
2023/01/09 10:28:05;;;;;;;;;;;6.10;99.90;;;;;;4942091;29;19967;-87
2023/01/09 10:30:48;;;;;;;;;;;6.20;99.90;;;;;;4940944;29;20283;-87
2023/01/09 10:33:26;;;;;;;;;;;6.20;99.90;;;;;;4941995;29;19934;-87
2023/01/09 10:36:10;;;;;;;;;;;6.30;99.90;;;;;;4941042;29;20255;-87
2023/01/09 10:38:38;;;;;;;;;;;6.30;99.90;;;;;;4941470;29;20278;-87
2023/01/09 10:41:16;;;;;;;;;;;6.30;99.90;;;;;;4941121;29;19926;-87
2023/01/09 10:43:57;;;;;;;;;;;6.30;99.90;;;;;;4941965;29;19926;-87
2023/01/09 10:46:26;;;;;;;;;;;6.30;99.90;;;;;;4925975;29;19926;-87
2023/01/09 10:48:55;;;;;;;;;;;6.30;99.90;;;;;;4940823;29;19934;-87
2023/01/09 10:51:24;;;;;;;;;;;7.10;99.90;;;;;;4940712;29;20328;-87
2023/01/09 10:53:53;;;;;;;;;;;6.30;99.90;;;;;;4925051;29;19931;-87
2023/01/09 10:56:26;;;;;;;;;;;6.30;99.90;;;;;;4940894;29;19933;-87
2023/01/09 10:58:53;;;;;;;;;;;6.30;99.90;;;;;;4941070;29;19934;-87
2023/01/09 11:01:21;;;;;;;;;;;6.70;99.90;;;;;;4940113;29;20039;-87
2023/01/09 11:03:46;;;;;;;;;;;7.40;99.90;;;;;;4940647;29;19931;-87
2023/01/09 11:06:35;;;;;;;;;;;6.40;99.90;;;;;;4941278;29;19982;-87
2023/01/09 11:09:02;;;;;;;;;;;6.40;99.90;;;;;;4937539;29;20355;-86
2023/01/09 11:11:39;;;;;;;;;;;6.40;99.90;;;;;;4940871;29;19931;-87
2023/01/09 11:14:11;;;;;;;;;;;6.40;99.90;;;;;;4940682;29;19977;-87
2023/01/09 11:16:37;;;;;;;;;;;6.50;99.90;;;;;;4940764;29;19933;-87
2023/01/09 11:19:02;;;;;;;;;;;6.50;99.90;;;;;;4940412;29;19926;-86
2023/01/09 11:21:31;;;;;;;;;;;6.50;99.90;;;;;;4924464;29;19926;-87
2023/01/09 11:24:16;;;;;;;;;;;6.40;99.90;;;;;;4940171;29;20444;-87
2023/01/09 11:26:41;;;;;;;;;;;6.40;99.90;;;;;;4939946;29;19958;-87
2023/01/09 11:29:11;;;;;;;;;;;7.10;99.90;;;;;;4924244;29;20335;-87
2023/01/09 11:31:38;;;;;;;;;;;6.40;99.90;;;;;;4940236;29;19930;-87
2023/01/09 11:34:05;;;;;;;;;;;6.40;99.90;;;;;;4940034;29;19927;-87
2023/01/09 11:36:31;;;;;;;;;;;6.50;99.90;;;;;;4940268;29;19926;-87
2023/01/09 11:38:58;;;;;;;;;;;6.30;99.90;;;;;;4939975;29;20320;-87
2023/01/09 11:41:25;;;;;;;;;;;6.30;99.90;;;;;;4940260;29;19930;-87
2023/01/09 11:43:53;;;;;;;;;;;6.20;99.90;;;;;;4924142;29;20335;-87
2023/01/09 11:46:30;;;;;;;;;;;6.20;99.90;;;;;;4939764;29;19927;-87
2023/01/09 11:48:57;;;;;;;;;;;6.20;99.90;;;;;;4939834;29;19934;-87
2023/01/09 11:51:27;;;;;;;;;;;7.20;99.90;;;;;;4923861;29;19926;-87
2023/01/09 11:53:59;;;;;;;;;;;6.20;99.90;;;;;;4923998;29;19926;-87
2023/01/09 11:56:25;;;;;;;;;;;6.20;99.90;;;;;;4924599;29;19927;-87
2023/01/09 11:58:51;;;;;;;;;;;7.10;99.90;;;;;;4940515;29;19934;-87
2023/01/09 12:01:17;;;;;;;;;;;6.30;99.90;;;;;;4940110;29;20359;-87
2023/01/09 12:03:57;;;;;;;;;;;6.60;99.90;;;;;;4939751;29;19933;-87
2023/01/09 12:06:31;;;;;;;;;;;6.30;99.90;;;;;;4939709;29;19958;-87
2023/01/09 12:09:07;;;;;;;;;;;6.30;99.90;;;;;;4939747;29;19930;-87
2023/01/09 12:11:32;;;;;;;;;;;6.30;99.90;;;;;;4940196;29;19926;-87
2023/01/09 12:13:58;;;;;;;;;;;7.00;99.90;;;;;;4939417;29;20283;-87
2023/01/09 12:16:42;;;;;;;;;;;6.30;99.90;;;;;;4939351;29;19931;-87
2023/01/09 12:19:08;;;;;;;;;;;6.30;99.90;;;;;;4939249;29;20397;-87
2023/01/09 12:21:42;;;;;;;;;;;6.30;99.90;;;;;;4939313;29;19991;-87
2023/01/09 12:24:08;;;;;;;;;;;6.30;99.90;;;;;;4939222;29;19930;-87
2023/01/09 12:26:42;;;;;;;;;;;6.30;99.90;;;;;;4938816;29;19938;-87
2023/01/09 12:29:11;;;;;;;;;;;6.30;99.90;;;;;;4939816;29;19995;-88
2023/01/09 12:31:52;;;;;;;;;;;6.40;99.90;;;;;;4939407;29;19933;-87
2023/01/09 12:34:27;;;;;;;;;;;5.50;99.90;;;;;;4939784;29;19938;-88
2023/01/09 12:37:00;;;;;;;;;;;6.40;99.90;;;;;;4938991;29;19930;-87
2023/01/09 12:39:35;;;;;;;;;;;6.40;99.90;;;;;;4939247;29;19926;-88
2023/01/09 12:42:15;;;;;;;;;;;6.40;99.90;;;;;;4938927;29;19927;-87
2023/01/09 12:44:49;;;;;;;;;;;6.40;99.90;;;;;;4939789;29;19998;-87
2023/01/09 12:47:26;;;;;;;;;;;6.40;99.90;;;;;;4955854;29;19926;-87
2023/01/09 12:50:08;;;;;;;;;;;6.50;99.90;;;;;;4938659;29;19930;-87
2023/01/09 12:52:37;;;;;;;;;;;6.50;99.90;;;;;;4939157;29;20279;-87
2023/01/09 12:55:03;;;;;;;;;;;7.30;99.90;;;;;;4939646;29;19998;-87
2023/01/09 12:57:36;;;;;;;;;;;6.50;99.90;;;;;;4938525;29;20374;-87
2023/01/09 13:00:14;;;;;;;;;;;6.50;99.90;;;;;;4939675;29;20013;-87
2023/01/09 13:02:42;;;;;;;;;;;6.50;99.90;;;;;;4939663;29;19934;-87
2023/01/09 13:05:16;;;;;;;;;;;6.60;99.90;;;;;;4939048;29;19931;-87
2023/01/09 13:07:44;;;;;;;;;;;6.60;99.90;;;;;;4922692;29;20355;-87
2023/01/09 13:10:26;;;;;;;;;;;6.60;99.90;;;;;;4938795;29;19981;-87
2023/01/09 13:12:53;;;;;;;;;;;6.60;99.90;;;;;;4923866;29;20017;-87
2023/01/09 13:15:27;;;;;;;;;;;7.60;99.90;;;;;;4923121;29;20004;-87
2023/01/09 13:18:12;;;;;;;;;;;6.60;99.90;;;;;;4938366;29;19954;-87
2023/01/09 13:20:41;;;;;;;;;;;6.60;99.90;;;;;;4938671;29;19931;-87
2023/01/09 13:23:09;;;;;;;;;;;6.60;99.90;;;;;;4922882;29;20371;-87
2023/01/09 13:25:37;;;;;;;;;;;6.60;99.90;;;;;;4922411;29;19926;-87
2023/01/09 13:28:06;;;;;;;;;;;6.70;99.90;;;;;;4938743;29;19926;-88
2023/01/09 13:30:50;;;;;;;;;;;6.60;99.90;;;;;;4954297;29;19926;-87
2023/01/09 13:33:27;;;;;;;;;;;6.60;99.90;;;;;;4938236;29;19932;-87
2023/01/09 13:35:54;;;;;;;;;;;6.60;99.90;;;;;;4938758;29;19973;-87
2023/01/09 13:38:21;;;;;;;;;;;6.70;99.90;;;;;;4938821;29;19931;-87
2023/01/09 13:42:34;;;;;;;;;;;7.10;99.90;;;;;;4938766;29;19981;-87
2023/01/09 13:43:55;;;;;;;;;;;6.60;99.90;;;;;;4938417;29;19973;-87
2023/01/09 13:46:21;;;;;;;;;;;6.70;99.90;;;;;;4938101;29;19927;-87
2023/01/09 13:48:47;;;;;;;;;;;6.70;99.90;;;;;;4938319;29;19955;-87
2023/01/09 13:51:35;;;;;;;;;;;6.70;99.90;;;;;;4938494;29;20367;-87
2023/01/09 13:54:01;;;;;;;;;;;6.80;99.90;;;;;;4939738;29;19926;-87
2023/01/09 13:56:26;;;;;;;;;;;7.20;99.90;;;;;;4925642;29;19934;-87
2023/01/09 13:58:57;;;;;;;;;;;6.80;99.90;;;;;;4942218;29;19981;-87
2023/01/09 14:01:36;;;;;;;;;;;6.80;99.90;;;;;;4941754;29;19926;-87
2023/01/09 14:04:08;;;;;;;;;;;6.80;99.90;;;;;;4942099;29;19933;-87
2023/01/09 14:06:33;;;;;;;;;;;6.80;99.90;;;;;;4941495;29;20359;-87
2023/01/09 14:09:19;;;;;;;;;;;6.80;99.90;;;;;;4957379;29;19934;-87
2023/01/09 14:11:45;;;;;;;;;;;6.70;99.90;;;;;;4941798;29;19981;-87
2023/01/09 14:14:19;;;;;;;;;;;7.20;99.90;;;;;;4941915;29;19927;-87
2023/01/09 14:16:45;;;;;;;;;;;6.70;99.90;;;;;;4942361;29;19926;-87
2023/01/09 14:19:14;;;;;;;;;;;6.60;99.90;;;;;;4941486;29;19926;-87
2023/01/09 14:22:06;;;;;;;;;;;6.50;99.90;;;;;;4941400;29;19933;-88
2023/01/09 14:24:31;;;;;;;;;;;6.50;99.90;;;;;;4939546;29;19981;-86
2023/01/09 14:26:58;;;;;;;;;;;6.50;99.90;;;;;;4941123;29;20401;-87
2023/01/09 14:29:29;;;;;;;;;;;6.60;99.90;;;;;;4941245;29;19926;-87
2023/01/09 14:32:14;;;;;;;;;;;6.50;99.90;;;;;;4941269;29;19934;-87
2023/01/09 14:34:40;;;;;;;;;;;6.50;99.90;;;;;;4941464;29;20274;-87
2023/01/09 14:37:10;;;;;;;;;;;5.50;99.90;;;;;;4940995;29;19980;-87
2023/01/09 14:39:39;;;;;;;;;;;6.40;99.90;;;;;;4940868;29;19934;-87
2023/01/09 14:42:05;;;;;;;;;;;6.30;99.90;;;;;;4942307;29;19933;-87
2023/01/09 14:44:37;;;;;;;;;;;6.30;99.90;;;;;;4940926;29;19991;-87
2023/01/09 14:47:09;;;;;;;;;;;6.30;99.90;;;;;;4940958;29;19933;-87
2023/01/09 14:49:40;;;;;;;;;;;6.30;99.90;;;;;;4941541;29;20382;-87